createdAt,value
2022-10-29T00:01:08.590Z,3.88
2022-10-29T00:03:38.636Z,4.07
2022-10-29T00:06:12.665Z,4.05
2022-10-29T00:08:42.653Z,3.72
2022-10-29T00:11:13.714Z,3.88
2022-10-29T00:13:41.472Z,3.87
2022-10-29T00:16:13.368Z,4.80
2022-10-29T00:18:45.941Z,3.47
2022-10-29T00:21:15.577Z,3.47
2022-10-29T00:23:42.543Z,4.95
2022-10-29T00:26:09.573Z,4.32
2022-10-29T00:28:38.716Z,4.35
2022-10-29T00:31:13.184Z,4.72
2022-10-29T00:33:44.876Z,5.25
2022-10-29T00:36:15.656Z,4.80
2022-10-29T00:38:42.480Z,5.13
2022-10-29T00:41:15.367Z,4.97
2022-10-29T00:43:48.883Z,4.68
2022-10-29T00:46:31.761Z,4.95
2022-10-29T00:49:02.460Z,5.25
2022-10-29T00:51:33.478Z,5.57
2022-10-29T00:54:09.144Z,5.47
2022-10-29T00:56:41.512Z,5.10
2022-10-29T00:59:09.306Z,4.60
2022-10-29T01:01:37.638Z,5.85
2022-10-29T01:04:04.777Z,5.97
2022-10-29T01:06:32.131Z,6.07
2022-10-29T01:09:03.325Z,5.40
2022-10-29T01:11:45.170Z,4.13
2022-10-29T01:14:29.934Z,6.20
2022-10-29T01:17:38.741Z,6.13
2022-10-29T01:20:14.523Z,6.07
2022-10-29T01:22:49.890Z,5.35
2022-10-29T01:25:24.657Z,4.35
2022-10-29T01:27:59.923Z,5.03
2022-10-29T01:31:04.225Z,5.03
2022-10-29T01:33:48.150Z,6.07
2022-10-29T01:36:16.957Z,5.35
2022-10-29T01:39:01.406Z,5.30
2022-10-29T01:41:56.390Z,5.45
2022-10-29T01:44:33.839Z,5.45
2022-10-29T01:47:05.583Z,5.65
2022-10-29T01:49:44.424Z,6.68
2022-10-29T01:52:15.173Z,6.50
2022-10-29T01:54:43.747Z,6.15
2022-10-29T01:57:27.639Z,7.07
2022-10-29T01:59:57.593Z,7.15
2022-10-29T02:02:56.679Z,6.35
2022-10-29T02:05:38.192Z,5.45
2022-10-29T02:08:13.923Z,4.53
2022-10-29T02:10:49.612Z,6.47
2022-10-29T02:13:19.272Z,6.18
2022-10-29T02:15:52.837Z,5.75
2022-10-29T02:18:19.851Z,6.43
2022-10-29T02:20:46.894Z,5.53
2022-10-29T02:23:15.951Z,5.30
2022-10-29T02:25:45.455Z,5.25
2022-10-29T02:28:14.676Z,4.85
2022-10-29T02:30:41.438Z,5.38
2022-10-29T02:33:08.141Z,6.13
2022-10-29T02:35:37.068Z,5.22
2022-10-29T02:38:06.231Z,5.88
2022-10-29T02:40:32.948Z,7.07
2022-10-29T02:42:59.766Z,5.65
2022-10-29T02:45:28.752Z,5.10
2022-10-29T02:47:57.991Z,5.93
2022-10-29T02:50:24.884Z,5.82
2022-10-29T02:52:51.557Z,5.72
2022-10-29T02:55:18.295Z,6.95
2022-10-29T02:57:45.616Z,6.65
2022-10-29T03:00:13.331Z,5.53
2022-10-29T03:02:40.382Z,6.00
2022-10-29T03:05:07.828Z,4.88
2022-10-29T03:07:38.368Z,5.80
2022-10-29T03:10:09.231Z,5.22
2022-10-29T03:12:38.431Z,6.22
2022-10-29T03:15:05.605Z,5.78
2022-10-29T03:17:34.749Z,6.53
2022-10-29T03:20:01.515Z,5.80
2022-10-29T03:22:28.194Z,5.65
2022-10-29T03:24:54.890Z,5.78
2022-10-29T03:27:21.612Z,5.38
2022-10-29T03:29:48.320Z,5.13
2022-10-29T03:32:15.045Z,5.68
2022-10-29T03:34:41.725Z,4.53
2022-10-29T03:37:13.111Z,5.32
2022-10-29T03:39:39.788Z,5.60
2022-10-29T03:42:06.488Z,5.30
2022-10-29T03:44:33.272Z,5.18
2022-10-29T03:47:02.513Z,5.13
2022-10-29T03:49:29.187Z,4.45
2022-10-29T03:52:00.363Z,6.05
2022-10-29T03:54:27.085Z,5.28
2022-10-29T03:56:56.007Z,5.53
2022-10-29T03:59:22.729Z,4.60
2022-10-29T04:01:51.792Z,6.00
2022-10-29T04:04:18.626Z,5.07
2022-10-29T04:06:45.340Z,4.53
2022-10-29T04:09:14.393Z,4.75
2022-10-29T04:11:43.232Z,5.15
2022-10-29T04:14:12.226Z,5.22
2022-10-29T04:16:41.075Z,5.60
2022-10-29T04:19:07.818Z,5.00
2022-10-29T04:29:59.641Z,5.88
2022-10-29T04:32:26.389Z,6.32
2022-10-29T04:34:55.580Z,5.10
2022-10-29T04:37:22.218Z,5.70
2022-10-29T04:39:53.786Z,6.25
2022-10-29T04:42:22.721Z,5.80
2022-10-29T04:44:49.477Z,6.10
2022-10-29T04:47:16.270Z,5.95
2022-10-29T04:49:45.179Z,6.35
2022-10-29T04:52:13.996Z,5.07
2022-10-29T04:54:40.637Z,6.68
2022-10-29T04:57:09.610Z,6.10
2022-10-29T04:59:36.296Z,5.40
2022-10-29T05:02:07.601Z,5.78
2022-10-29T05:04:34.275Z,6.13
2022-10-29T05:07:03.457Z,5.07
2022-10-29T05:09:30.157Z,4.45
2022-10-29T05:11:56.798Z,6.18
2022-10-29T05:14:23.438Z,5.07
2022-10-29T05:16:50.096Z,6.38
2022-10-29T05:19:19.211Z,6.45
2022-10-29T05:21:45.894Z,5.47
2022-10-29T05:24:12.586Z,6.13
2022-10-29T05:26:43.873Z,5.97
2022-10-29T05:29:10.523Z,6.30
2022-10-29T05:31:37.217Z,6.65
2022-10-29T05:34:03.874Z,6.15
2022-10-29T05:36:30.590Z,5.60
2022-10-29T05:38:57.322Z,6.55
2022-10-29T05:41:24.015Z,6.47
2022-10-29T05:43:51.098Z,5.82
2022-10-29T05:46:20.114Z,6.45
2022-10-29T05:48:49.074Z,6.65
2022-10-29T05:51:20.283Z,6.03
2022-10-29T05:53:50.056Z,6.00
2022-10-29T05:56:21.704Z,7.32
2022-10-29T05:58:53.816Z,8.18
2022-10-29T06:01:20.620Z,7.65
2022-10-29T06:03:47.491Z,7.35
2022-10-29T06:06:14.321Z,6.50
2022-10-29T06:08:41.154Z,6.18
2022-10-29T06:11:07.854Z,5.78
2022-10-29T06:13:36.741Z,6.32
2022-10-29T06:16:03.597Z,4.88
2022-10-29T06:18:32.977Z,6.60
2022-10-29T06:21:00.573Z,7.55
2022-10-29T06:23:28.376Z,5.70
2022-10-29T06:26:01.765Z,5.72
2022-10-29T06:28:33.675Z,4.75
2022-10-29T06:31:03.787Z,4.82
2022-10-29T06:33:32.608Z,6.25
2022-10-29T06:36:00.797Z,6.38
2022-10-29T06:38:27.567Z,5.82
2022-10-29T06:40:56.592Z,5.97
2022-10-29T06:43:23.224Z,5.10
2022-10-29T06:45:50.147Z,6.20
2022-10-29T06:48:21.754Z,5.72
2022-10-29T06:50:51.882Z,7.55
2022-10-29T06:53:21.321Z,6.88
2022-10-29T06:55:48.082Z,6.60
2022-10-29T06:58:17.025Z,5.70
2022-10-29T07:00:44.754Z,5.28
2022-10-29T07:03:13.738Z,5.40
2022-10-29T07:05:40.425Z,5.70
2022-10-29T07:08:09.814Z,5.88
2022-10-29T07:10:36.928Z,5.80
2022-10-29T07:13:03.807Z,5.07
2022-10-29T07:15:35.377Z,4.68
2022-10-29T07:18:04.366Z,4.35
2022-10-29T07:20:33.609Z,4.00
2022-10-29T07:23:01.324Z,5.30
2022-10-29T07:25:29.192Z,4.30
2022-10-29T07:28:04.707Z,4.40
2022-10-29T07:30:36.594Z,4.25
2022-10-29T07:33:05.847Z,5.13
2022-10-29T07:35:35.496Z,4.00
2022-10-29T07:38:08.803Z,4.28
2022-10-29T07:40:37.902Z,4.70
2022-10-29T07:43:06.780Z,4.70
2022-10-29T07:45:35.956Z,5.00
2022-10-29T07:48:04.984Z,5.50
2022-10-29T07:50:32.292Z,5.43
2022-10-29T07:53:03.774Z,5.68
2022-10-29T07:58:05.364Z,5.55
2022-10-29T08:00:37.099Z,5.22
2022-10-29T08:03:08.573Z,4.70
2022-10-29T08:05:38.055Z,4.38
2022-10-29T08:08:07.777Z,5.18
2022-10-29T08:10:37.817Z,5.10
2022-10-29T08:13:06.290Z,5.55
2022-10-29T08:15:34.850Z,5.88
2022-10-29T08:18:02.060Z,4.65
2022-10-29T08:20:29.873Z,4.57
2022-10-29T08:23:01.986Z,4.75
2022-10-29T08:25:29.513Z,5.00
2022-10-29T08:28:01.216Z,4.60
2022-10-29T08:30:28.793Z,4.93
2022-10-29T08:32:55.857Z,4.18
2022-10-29T08:35:22.961Z,4.40
2022-10-29T08:37:49.735Z,3.80
2022-10-29T08:40:46.233Z,3.97
2022-10-29T08:43:21.841Z,4.15
2022-10-29T08:45:51.340Z,3.83
2022-10-29T08:48:40.633Z,3.22
2022-10-29T08:51:25.827Z,3.78
2022-10-29T08:56:58.504Z,6.07
2022-10-29T08:59:31.297Z,4.75
2022-10-29T09:01:58.309Z,5.10
2022-10-29T09:04:28.929Z,4.60
2022-10-29T09:07:20.370Z,3.83
2022-10-29T09:09:59.096Z,4.03
2022-10-29T09:12:52.394Z,4.90
2022-10-29T09:15:28.105Z,4.28
2022-10-29T09:18:31.784Z,4.80
2022-10-29T09:21:35.042Z,3.97
2022-10-29T09:24:05.337Z,3.97
2022-10-29T09:26:37.794Z,4.38
2022-10-29T09:29:14.247Z,3.88
2022-10-29T09:31:46.748Z,3.67
2022-10-29T09:34:18.973Z,4.10
2022-10-29T09:36:47.641Z,4.30
2022-10-29T09:39:24.366Z,4.07
2022-10-29T09:41:53.603Z,5.07
2022-10-29T09:44:28.039Z,5.38
2022-10-29T09:47:23.299Z,4.65
2022-10-29T09:49:57.184Z,3.78
2022-10-29T09:52:34.125Z,3.95
2022-10-29T09:55:03.085Z,4.00
2022-10-29T09:57:31.700Z,4.07
2022-10-29T10:00:04.658Z,3.75
2022-10-29T10:02:31.362Z,3.80
2022-10-29T10:05:26.125Z,4.10
2022-10-29T10:08:09.400Z,3.35
2022-10-29T10:10:49.770Z,3.88
2022-10-29T10:13:23.157Z,3.45
2022-10-29T10:15:56.542Z,3.65
2022-10-29T10:18:26.348Z,3.45
2022-10-29T10:21:10.505Z,3.50
2022-10-29T10:23:42.914Z,3.28
2022-10-29T10:26:35.009Z,3.45
2022-10-29T10:29:32.415Z,3.33
2022-10-29T10:31:59.043Z,3.08
2022-10-29T10:34:35.066Z,3.00
2022-10-29T10:37:07.586Z,2.80
2022-10-29T10:39:42.805Z,3.00
2022-10-29T10:42:20.230Z,3.28
2022-10-29T10:45:16.804Z,3.47
2022-10-29T10:47:51.104Z,3.22
2022-10-29T10:50:32.802Z,3.03
2022-10-29T10:53:05.140Z,3.35
2022-10-29T10:55:35.515Z,2.85
2022-10-29T10:58:23.633Z,3.40
2022-10-29T11:01:07.501Z,3.17
2022-10-29T11:03:48.683Z,3.75
2022-10-29T11:06:24.940Z,3.30
2022-10-29T11:09:14.385Z,3.10
2022-10-29T11:12:09.344Z,3.05
2022-10-29T11:14:44.850Z,2.58
2022-10-29T11:17:32.424Z,2.97
2022-10-29T11:20:05.996Z,2.80
2022-10-29T11:23:03.937Z,2.80
2022-10-29T11:25:41.410Z,2.90
2022-10-29T11:28:38.821Z,2.92
2022-10-29T11:31:26.668Z,2.85
2022-10-29T11:34:01.340Z,2.47
2022-10-29T11:36:34.455Z,3.15
2022-10-29T11:39:58.131Z,3.13
2022-10-29T11:42:27.340Z,3.60
2022-10-29T11:45:11.844Z,3.03
2022-10-29T11:47:58.108Z,3.30
2022-10-29T11:50:43.229Z,4.07
2022-10-29T11:53:54.500Z,4.45
2022-10-29T11:57:00.168Z,3.60
2022-10-29T11:59:45.648Z,3.08
2022-10-29T12:02:29.761Z,2.80
2022-10-29T12:05:06.515Z,2.83
2022-10-29T12:08:20.967Z,3.78
2022-10-29T12:10:56.814Z,3.22
2022-10-29T12:13:29.027Z,3.10
2022-10-29T12:16:13.819Z,3.20
2022-10-29T12:19:17.873Z,3.67
2022-10-29T12:21:50.697Z,4.20
2022-10-29T12:24:36.015Z,3.60
2022-10-29T12:27:17.978Z,3.22
2022-10-29T12:29:54.598Z,3.45
2022-10-29T12:32:28.490Z,3.10
2022-10-29T12:35:28.779Z,3.25
2022-10-29T12:38:16.852Z,3.13
2022-10-29T12:40:45.803Z,3.28
2022-10-29T12:43:29.102Z,3.17
2022-10-29T12:49:12.181Z,2.80
2022-10-29T12:52:12.689Z,3.08
2022-10-29T12:54:42.286Z,2.80
2022-10-29T12:57:33.363Z,2.65
2022-10-29T13:00:33.681Z,3.40
2022-10-29T13:03:03.557Z,3.35
2022-10-29T13:05:39.739Z,2.95
2022-10-29T13:08:06.438Z,2.88
2022-10-29T13:10:33.075Z,3.78
2022-10-29T13:12:59.744Z,4.40
2022-10-29T13:15:35.618Z,3.88
2022-10-29T13:18:26.833Z,3.70
2022-10-29T13:20:55.163Z,3.20
2022-10-29T13:23:21.833Z,3.20
2022-10-29T13:25:57.540Z,3.00
2022-10-29T13:28:24.160Z,2.67
2022-10-29T13:31:14.283Z,2.90
2022-10-29T13:33:40.903Z,3.67
2022-10-29T13:36:16.447Z,4.13
2022-10-29T13:39:04.382Z,2.97
2022-10-29T13:41:42.610Z,3.67
2022-10-29T13:44:12.178Z,3.67
2022-10-29T13:46:47.779Z,3.42
2022-10-29T13:49:31.413Z,4.03
2022-10-29T13:52:05.183Z,5.95
2022-10-29T13:54:40.950Z,5.03
2022-10-29T13:57:25.679Z,6.25
2022-10-29T14:00:00.819Z,5.80
2022-10-29T14:02:33.507Z,5.68
2022-10-29T14:05:13.304Z,4.82
2022-10-29T14:07:57.607Z,4.20
2022-10-29T14:10:34.229Z,3.30
2022-10-29T14:13:25.664Z,3.85
2022-10-29T14:16:09.893Z,4.47
2022-10-29T14:18:40.696Z,5.22
2022-10-29T14:21:21.916Z,5.50
2022-10-29T14:24:02.503Z,5.03
2022-10-29T14:26:31.605Z,3.70
2022-10-29T14:29:23.250Z,4.55
2022-10-29T14:32:20.061Z,3.90
2022-10-29T14:34:53.042Z,3.75
2022-10-29T14:37:32.408Z,3.88
2022-10-29T14:40:03.793Z,3.95
2022-10-29T14:42:40.497Z,3.95
2022-10-29T14:45:23.022Z,3.75
2022-10-29T14:47:54.922Z,3.80
2022-10-29T14:53:00.917Z,3.33
2022-10-29T14:55:36.788Z,3.67
2022-10-29T14:58:21.833Z,3.85
2022-10-29T15:01:03.463Z,4.10
2022-10-29T15:03:34.811Z,4.07
2022-10-29T15:06:17.227Z,3.55
2022-10-29T15:08:46.090Z,3.60
2022-10-29T15:11:39.184Z,3.13
2022-10-29T15:14:31.000Z,3.53
2022-10-29T15:19:26.469Z,3.33
2022-10-29T15:21:55.696Z,3.33
2022-10-29T15:24:24.060Z,3.67
2022-10-29T15:26:57.596Z,3.30
2022-10-29T15:29:33.501Z,3.78
2022-10-29T15:32:03.725Z,3.78
2022-10-29T15:34:37.463Z,4.40
2022-10-29T15:37:19.409Z,4.97
2022-10-29T15:40:12.112Z,5.28
2022-10-29T15:42:42.132Z,4.18
2022-10-29T15:45:08.868Z,3.88
2022-10-29T15:47:41.239Z,3.95
2022-10-29T15:50:14.359Z,5.05
2022-10-29T15:52:44.138Z,4.18
2022-10-29T15:55:19.770Z,5.00
2022-10-29T15:57:51.694Z,4.53
2022-10-29T16:00:22.482Z,4.88
2022-10-29T16:02:51.769Z,4.40
2022-10-29T16:05:18.957Z,4.25
2022-10-29T16:07:47.622Z,4.75
2022-10-29T16:10:22.783Z,4.85
2022-10-29T16:12:50.060Z,4.85
2022-10-29T16:15:19.704Z,4.78
2022-10-29T16:17:48.696Z,5.22
2022-10-29T16:20:18.025Z,7.93
2022-10-29T16:22:46.922Z,5.43
2022-10-29T16:25:29.083Z,5.15
2022-10-29T16:30:23.780Z,4.78
2022-10-29T16:32:52.412Z,3.90
2022-10-29T16:35:24.163Z,5.38
2022-10-29T16:37:54.454Z,4.88
2022-10-29T16:40:23.994Z,5.15
2022-10-29T16:42:50.888Z,5.28
2022-10-29T16:45:29.794Z,4.40
2022-10-29T16:47:57.423Z,6.32
2022-10-29T16:50:27.595Z,6.60
2022-10-29T16:53:00.977Z,6.05
2022-10-29T16:55:31.335Z,6.00
2022-10-29T16:57:58.819Z,6.80
2022-10-29T17:00:26.238Z,5.95
2022-10-29T17:02:53.143Z,7.40
2022-10-29T17:05:19.917Z,7.53
2022-10-29T17:07:46.571Z,8.45
2022-10-29T17:10:13.240Z,6.95
2022-10-29T17:12:42.180Z,9.20
2022-10-29T17:15:09.326Z,9.55
2022-10-29T17:17:39.953Z,10.13
2022-10-29T17:20:09.837Z,9.20
2022-10-29T17:22:36.748Z,8.02
2022-10-29T17:25:03.514Z,7.03
2022-10-29T17:27:30.255Z,6.85
2022-10-29T17:29:59.379Z,6.03
2022-10-29T17:32:26.275Z,6.40
2022-10-29T17:34:52.971Z,5.55
2022-10-29T17:37:19.673Z,5.95
2022-10-29T17:39:49.169Z,6.63
2022-10-29T17:42:15.992Z,6.88
2022-10-29T17:44:42.704Z,7.72
2022-10-29T17:47:17.931Z,6.50
2022-10-29T17:49:46.831Z,7.00
2022-10-29T17:52:13.567Z,6.85
2022-10-29T17:54:42.701Z,6.18
2022-10-29T17:57:14.021Z,5.88
2022-10-29T17:59:40.701Z,6.53
2022-10-29T18:02:10.828Z,5.72
2022-10-29T18:04:37.605Z,7.00
2022-10-29T18:07:04.356Z,7.47
2022-10-29T18:09:31.240Z,6.50
2022-10-29T18:11:57.956Z,7.25
2022-10-29T18:14:24.637Z,7.25
2022-10-29T18:16:53.704Z,7.05
2022-10-29T18:19:20.483Z,7.20
2022-10-29T18:21:49.533Z,6.18
2022-10-29T18:24:16.310Z,9.85
2022-10-29T18:26:43.083Z,11.82
2022-10-29T18:29:14.451Z,11.85
2022-10-29T18:31:46.777Z,12.75
2022-10-29T18:34:15.175Z,12.60
2022-10-29T18:36:42.995Z,7.72
2022-10-29T18:39:10.200Z,6.72
2022-10-29T18:41:41.604Z,7.10
2022-10-29T18:44:10.414Z,7.57
2022-10-29T18:46:37.196Z,7.38
2022-10-29T18:49:09.092Z,9.45
2022-10-29T18:54:04.585Z,10.32
2022-10-29T18:56:33.810Z,11.75
2022-10-29T18:59:05.302Z,18.55
2022-10-29T19:01:34.468Z,13.32
2022-10-29T19:04:07.070Z,11.68
2022-10-29T19:06:36.303Z,8.80
2022-10-29T19:09:05.721Z,7.97
2022-10-29T19:11:35.333Z,6.88
2022-10-29T19:14:07.896Z,6.28
2022-10-29T19:16:39.247Z,6.35
2022-10-29T19:19:12.543Z,7.40
2022-10-29T19:21:43.143Z,9.23
2022-10-29T19:24:13.836Z,10.80
2022-10-29T19:26:43.564Z,8.80
2022-10-29T19:29:10.785Z,6.80
2022-10-29T19:31:40.758Z,6.35
2022-10-29T19:34:10.734Z,8.30
2022-10-29T19:36:39.898Z,7.45
2022-10-29T19:39:06.755Z,7.80
2022-10-29T19:41:33.595Z,7.20
2022-10-29T19:44:01.541Z,5.97
2022-10-29T19:46:28.606Z,7.57
2022-10-29T19:48:59.149Z,7.70
2022-10-29T19:51:26.360Z,7.15
2022-10-29T19:53:53.110Z,7.13
2022-10-29T19:56:20.895Z,7.47
2022-10-29T19:58:47.963Z,6.57
2022-10-29T20:01:19.563Z,6.22
2022-10-29T20:03:49.215Z,7.63
2022-10-29T20:06:18.337Z,8.57
2022-10-29T20:08:47.171Z,8.88
2022-10-29T20:11:16.128Z,7.43
2022-10-29T20:13:47.524Z,6.55
2022-10-29T20:16:20.993Z,6.35
2022-10-29T20:18:48.707Z,5.38
2022-10-29T20:21:18.142Z,6.80
2022-10-29T20:23:49.609Z,6.43
2022-10-29T20:26:18.583Z,6.10
2022-10-29T20:28:52.435Z,5.72
2022-10-29T20:31:23.382Z,5.93
2022-10-29T20:33:53.941Z,5.90
2022-10-29T20:36:26.851Z,5.88
2022-10-29T20:38:54.060Z,6.63
2022-10-29T20:41:21.743Z,6.05
2022-10-29T20:43:56.436Z,7.07
2022-10-29T20:46:26.270Z,6.13
2022-10-29T20:48:58.117Z,6.95
2022-10-29T20:51:27.413Z,8.13
2022-10-29T20:53:54.707Z,6.65
2022-10-29T20:56:23.642Z,7.25
2022-10-29T20:58:52.866Z,6.60
2022-10-29T21:01:25.016Z,6.47
2022-10-29T21:03:51.927Z,6.22
2022-10-29T21:06:21.619Z,6.30
2022-10-29T21:08:52.313Z,7.40
2022-10-29T21:11:20.524Z,7.15
2022-10-29T21:13:49.747Z,7.80
2022-10-29T21:16:23.625Z,6.55
2022-10-29T21:18:54.186Z,7.55
2022-10-29T21:21:21.326Z,6.68
2022-10-29T21:23:48.433Z,6.05
2022-10-29T21:26:24.020Z,4.50
2022-10-29T21:28:52.209Z,6.70
2022-10-29T21:31:19.895Z,4.88
2022-10-29T21:33:51.954Z,5.07
2022-10-29T21:36:21.764Z,6.10
2022-10-29T21:38:50.835Z,5.72
2022-10-29T21:41:18.398Z,5.95
2022-10-29T21:43:45.615Z,6.70
2022-10-29T21:46:14.687Z,6.18
2022-10-29T21:48:43.529Z,6.50
2022-10-29T21:51:15.135Z,5.82
2022-10-29T21:53:41.890Z,8.27
2022-10-29T21:56:11.779Z,6.75
2022-10-29T21:58:38.619Z,5.38
2022-10-29T22:01:14.328Z,6.85
2022-10-29T22:03:45.475Z,7.03
2022-10-29T22:06:18.543Z,4.70
2022-10-29T22:08:52.572Z,7.05
2022-10-29T22:11:19.329Z,7.07
2022-10-29T22:13:48.479Z,5.88
2022-10-29T22:16:15.608Z,6.13
2022-10-29T22:18:42.542Z,6.38
2022-10-29T22:21:14.015Z,6.07
2022-10-29T22:23:46.335Z,6.60
2022-10-29T22:26:14.683Z,5.88
2022-10-29T22:28:41.482Z,5.88
2022-10-29T22:31:10.999Z,5.85
2022-10-29T22:33:37.899Z,6.10
2022-10-29T22:36:18.252Z,5.82
2022-10-29T22:38:51.730Z,5.07
2022-10-29T22:41:21.015Z,5.45
2022-10-29T22:43:47.716Z,5.10
2022-10-29T22:46:18.403Z,5.60
2022-10-29T22:48:45.936Z,6.22
2022-10-29T22:51:12.638Z,5.25
2022-10-29T22:53:42.049Z,4.75
2022-10-29T22:56:13.751Z,5.50
2022-10-29T22:58:42.638Z,5.20
2022-10-29T23:01:13.909Z,5.03
2022-10-29T23:03:45.993Z,4.75
2022-10-29T23:06:18.492Z,5.13
2022-10-29T23:08:46.216Z,7.53
2022-10-29T23:11:19.179Z,5.45
2022-10-29T23:13:52.694Z,5.88
2022-10-29T23:16:22.011Z,5.40
2022-10-29T23:18:55.032Z,7.80
2022-10-29T23:21:24.286Z,6.78
2022-10-29T23:23:51.265Z,6.10
2022-10-29T23:26:21.699Z,6.15
2022-10-29T23:28:50.747Z,6.07
2022-10-29T23:31:28.071Z,5.15
2022-10-29T23:33:56.575Z,6.10
2022-10-29T23:36:25.167Z,3.97
2022-10-29T23:38:56.613Z,5.47
2022-10-29T23:41:28.917Z,6.20
2022-10-29T23:43:55.843Z,5.95
2022-10-29T23:46:27.222Z,5.47
2022-10-29T23:48:56.277Z,4.80
2022-10-29T23:51:23.103Z,5.20
2022-10-29T23:53:54.918Z,5.75
2022-10-29T23:56:24.469Z,5.90
2022-10-29T23:58:51.176Z,5.45
